Time;durP1;ratioP1;P1;durP2;ratioP2;P2;SDS_P1;SDS_P2;PMS_P1;PMS_P2;Temp;Humidity;BMP_temperature;BMP_pressure;BME280_temperature;BME280_humidity;BME280_pressure;Samples;Min_cycle;Max_cycle;Signal;HPM_P1;HPM_P2
2023/05/02 00:01:42;;;;;;;4.93;1.67;;;;;;;23.20;35.26;99729.25;4361662;32;34656;-62
2023/05/02 00:04:09;;;;;;;4.30;1.95;;;;;;;23.19;35.20;99724.88;4361619;32;34027;-62
2023/05/02 00:06:37;;;;;;;4.12;1.62;;;;;;;23.20;35.11;99730.09;4351892;32;34072;-61
2023/05/02 00:09:05;;;;;;;4.22;2.03;;;;;;;23.19;35.04;99719.44;4333345;33;34606;-63
2023/05/02 00:11:32;;;;;;;5.03;2.03;;;;;;;23.19;34.98;99724.88;4346653;33;34293;-63
2023/05/02 00:14:00;;;;;;;5.30;2.20;;;;;;;23.19;34.91;99720.25;4346459;33;34071;-62
2023/05/02 00:16:27;;;;;;;5.22;2.30;;;;;;;23.19;34.97;99724.88;4346720;33;34838;-61
2023/05/02 00:18:55;;;;;;;3.25;1.80;;;;;;;23.18;34.92;99721.34;4346690;33;34108;-62
2023/05/02 00:21:22;;;;;;;3.65;2.03;;;;;;;23.16;34.92;99713.38;4346353;33;34398;-57
2023/05/02 00:23:50;;;;;;;4.22;2.05;;;;;;;23.16;34.83;99718.00;4346550;33;34672;-63
2023/05/02 00:26:18;;;;;;;3.75;1.70;;;;;;;23.16;34.85;99716.09;4346242;33;34902;-61
2023/05/02 00:28:46;;;;;;;3.83;1.85;;;;;;;23.15;34.83;99722.59;4346333;33;34952;-63
2023/05/02 00:31:13;;;;;;;3.72;1.95;;;;;;;23.17;34.84;99720.50;4346445;33;34553;-58
2023/05/02 00:33:41;;;;;;;5.43;2.05;;;;;;;23.16;34.88;99721.53;4346292;33;34042;-62
2023/05/02 00:36:13;;;;;;;4.75;2.08;;;;;;;23.16;34.97;99718.00;4332999;33;34844;-61
2023/05/02 00:38:41;;;;;;;4.43;2.05;;;;;;;23.16;34.94;99720.72;4346200;33;34593;-62
2023/05/02 00:41:09;;;;;;;4.15;2.05;;;;;;;23.14;34.86;99726.37;4346574;33;34115;-61
2023/05/02 00:43:38;;;;;;;4.22;1.85;;;;;;;23.14;34.75;99722.84;4346108;33;34119;-59
2023/05/02 00:46:06;;;;;;;3.70;1.85;;;;;;;23.14;34.83;99726.37;4346436;33;33791;-63
2023/05/02 00:48:34;;;;;;;3.05;1.60;;;;;;;23.13;34.97;99719.28;4345979;33;35201;-63
2023/05/02 00:51:03;;;;;;;4.47;2.30;;;;;;;23.14;34.81;99717.41;4332943;33;33284;-63
2023/05/02 00:53:31;;;;;;;;;;;;;;;23.13;34.84;99726.63;4346458;33;33597;-61
2023/05/02 00:55:59;;;;;;;4.37;1.90;;;;;;;23.23;34.59;99721.47;4346043;33;33739;-62
2023/05/02 00:58:26;;;;;;;4.07;1.83;;;;;;;23.14;34.52;99720.94;4346100;33;34268;-59
2023/05/02 01:00:58;;;;;;;4.47;2.25;;;;;;;23.12;34.66;99727.66;4332730;33;33631;-62
2023/05/02 01:03:40;;;;;;;3.62;2.00;;;;;;;23.10;34.70;99721.63;4346285;33;33914;-59
2023/05/02 01:06:15;;;;;;;4.60;2.00;;;;;;;23.10;34.55;99722.44;4354605;32;34772;-63
2023/05/02 01:08:49;;;;;;;3.12;1.70;;;;;;;23.09;34.52;99720.78;4362749;32;35132;-63
2023/05/02 01:11:47;;;;;;;6.57;2.40;;;;;;;23.08;34.54;99727.31;4362991;32;33870;-60
2023/05/02 01:14:15;;;;;;;4.40;1.98;;;;;;;23.11;34.54;99720.56;4347725;32;34110;-62
2023/05/02 01:16:42;;;;;;;5.22;2.15;;;;;;;23.09;34.48;99723.53;4349430;32;34046;-63
2023/05/02 01:19:34;;;;;;;3.30;1.77;;;;;;;23.07;34.53;99720.16;4337142;32;35026;-62
2023/05/02 01:22:06;;;;;;;3.78;1.87;;;;;;;23.09;34.51;99719.97;4349870;32;34627;-58
2023/05/02 01:24:40;;;;;;;3.28;1.83;;;;;;;23.07;34.39;99719.34;4337321;32;34086;-62
2023/05/02 01:27:27;;;;;;;2.90;2.00;;;;;;;23.05;34.40;99714.13;4349373;32;34009;-61
2023/05/02 01:29:55;;;;;;;3.80;2.00;;;;;;;23.05;34.60;99719.59;4349103;32;34256;-63
2023/05/02 01:32:23;;;;;;;6.00;2.10;;;;;;;23.06;34.44;99718.50;4337288;32;33136;-60
2023/05/02 01:34:50;;;;;;;5.45;1.90;;;;;;;23.04;34.34;99715.19;4337291;32;34017;-62
2023/05/02 01:37:18;;;;;;;3.37;1.60;;;;;;;23.05;34.24;99711.41;4336775;32;32652;-61
2023/05/02 01:39:46;;;;;;;3.87;2.42;;;;;;;23.05;34.27;99710.59;4337279;32;33961;-62
2023/05/02 01:42:13;;;;;;;4.93;1.90;;;;;;;23.06;34.24;99714.97;4362580;32;34421;-57
2023/05/02 01:44:41;;;;;;;3.83;1.90;;;;;;;23.05;34.22;99714.13;4349202;32;33848;-61
2023/05/02 01:47:09;;;;;;;3.17;1.70;;;;;;;23.05;34.20;99705.97;4362569;32;34127;-61
2023/05/02 01:49:36;;;;;;;5.05;1.80;;;;;;;23.04;34.13;99709.75;4348799;32;34941;-58
2023/05/02 01:52:04;;;;;;;3.42;1.62;;;;;;;23.05;34.02;99707.88;4349207;32;33337;-61
2023/05/02 01:54:32;;;;;;;3.95;1.67;;;;;;;23.04;34.02;99708.94;4336917;32;34919;-56
2023/05/02 01:57:00;;;;;;;3.72;1.77;;;;;;;23.04;33.96;99704.31;4348937;32;34734;-62
2023/05/02 01:59:27;;;;;;;3.78;1.70;;;;;;;23.04;33.96;99698.88;4337062;32;33826;-61
2023/05/02 02:01:55;;;;;;;3.72;1.75;;;;;;;23.03;33.93;99702.63;4349033;32;33639;-59
2023/05/02 02:04:23;;;;;;;5.00;2.10;;;;;;;23.03;33.98;99699.91;4336824;32;34725;-60
2023/05/02 02:06:54;;;;;;;5.82;2.12;;;;;;;23.03;34.02;99705.34;4336746;32;34990;-59
2023/05/02 02:09:21;;;;;;;4.05;1.90;;;;;;;23.02;33.89;99697.41;4337302;32;33988;-60
2023/05/02 02:11:56;;;;;;;4.15;2.12;;;;;;;23.02;33.93;99692.81;4362307;32;34275;-60
2023/05/02 02:14:24;;;;;;;4.45;2.00;;;;;;;23.02;33.89;99695.53;4349227;32;33738;-62
2023/05/02 02:16:54;;;;;;;3.47;1.75;;;;;;;23.02;33.88;99694.69;4362001;32;34051;-61
2023/05/02 02:19:21;;;;;;;4.90;1.90;;;;;;;23.02;33.91;99689.25;4349054;32;34933;-58
2023/05/02 02:21:49;;;;;;;5.32;1.83;;;;;;;23.02;33.95;99691.97;4349067;32;33298;-60
2023/05/02 02:24:17;;;;;;;3.30;1.77;;;;;;;23.00;33.98;99685.94;4362331;32;34028;-59
2023/05/02 02:26:45;;;;;;;4.60;1.92;;;;;;;23.00;33.94;99683.22;4336717;32;33909;-61
2023/05/02 02:29:13;;;;;;;3.72;2.03;;;;;;;23.00;33.88;99685.94;4348883;32;34092;-58
2023/05/02 02:31:40;;;;;;;6.85;2.00;;;;;;;22.99;33.91;99685.12;4348815;32;34628;-59
2023/05/02 02:34:08;;;;;;;4.00;1.65;;;;;;;22.99;33.86;99685.12;4362204;32;34734;-62
2023/05/02 02:36:44;;;;;;;4.72;1.80;;;;;;;22.98;33.86;99683.44;4362254;32;34833;-59
2023/05/02 02:39:22;;;;;;;3.05;1.92;;;;;;;22.98;33.96;99683.44;4362041;32;34318;-61
2023/05/02 02:42:03;;;;;;;4.87;1.83;;;;;;;22.99;33.93;99681.53;4349358;32;33721;-63
2023/05/02 02:44:46;;;;;;;4.57;2.00;;;;;;;23.00;33.88;99684.06;4349376;32;33982;-57
2023/05/02 02:47:25;;;;;;;4.10;2.10;;;;;;;23.00;33.82;99678.63;4348909;32;34300;-60
2023/05/02 02:50:21;;;;;;;4.22;1.92;;;;;;;22.99;33.85;99678.81;4348703;32;34238;-60
2023/05/02 02:52:53;;;;;;;4.15;1.90;;;;;;;23.00;33.95;99677.78;4362250;32;33664;-62
2023/05/02 02:55:52;;;;;;;3.17;1.80;;;;;;;22.98;33.90;99690.75;4362093;32;34820;-61
2023/05/02 02:58:42;;;;;;;4.03;1.70;;;;;;;22.99;33.87;99689.69;4357925;32;33723;-59
2023/05/02 03:01:13;;;;;;;3.97;1.75;;;;;;;22.98;33.95;99683.44;4348707;32;35051;-62
2023/05/02 03:03:42;;;;;;;4.20;2.30;;;;;;;22.97;33.78;99691.84;4336951;32;34347;-60
2023/05/02 03:06:09;;;;;;;3.83;1.98;;;;;;;22.96;33.77;99687.44;4329788;33;32396;-61
2023/05/02 03:08:42;;;;;;;5.00;2.10;;;;;;;22.96;33.75;99682.00;4346940;33;33639;-58
2023/05/02 03:11:11;;;;;;;4.62;1.70;;;;;;;22.94;33.85;99690.38;4347482;33;35238;-59
2023/05/02 03:13:38;;;;;;;3.97;1.90;;;;;;;22.95;33.89;99693.97;4347205;33;33730;-58
2023/05/02 03:16:39;;;;;;;4.62;2.45;;;;;;;22.94;33.77;99698.53;4347316;33;34088;-62
2023/05/02 03:19:07;;;;;;;3.70;2.17;;;;;;;22.97;33.78;99694.56;4330636;33;34872;-61
2023/05/02 03:21:35;;;;;;;5.87;2.17;;;;;;;22.94;33.84;99695.00;4347396;33;34213;-57
2023/05/02 03:24:04;;;;;;;4.75;2.30;;;;;;;22.92;33.74;99693.34;4347351;33;34522;-57
2023/05/02 03:26:32;;;;;;;4.00;2.20;;;;;;;22.92;33.73;99696.06;4347154;33;33133;-60
2023/05/02 03:29:00;;;;;;;3.83;2.10;;;;;;;22.92;33.74;99697.94;4346960;33;34073;-60
2023/05/02 03:31:28;;;;;;;4.87;2.17;;;;;;;22.92;33.74;99693.34;4347377;33;34086;-56
2023/05/02 03:33:57;;;;;;;5.87;1.90;;;;;;;22.92;33.70;99700.66;4347105;33;33859;-55
2023/05/02 03:36:24;;;;;;;5.65;2.30;;;;;;;22.92;33.76;99703.37;4347312;33;33448;-63
2023/05/02 03:38:52;;;;;;;3.90;2.08;;;;;;;22.92;33.86;99697.94;4347308;33;34020;-62
2023/05/02 03:41:20;;;;;;;3.72;2.17;;;;;;;22.93;33.84;99705.03;4346821;33;34418;-60
2023/05/02 03:43:50;;;;;;;5.43;1.85;;;;;;;22.93;33.88;99702.31;4347311;33;33473;-62
2023/05/02 03:46:20;;;;;;;3.90;2.00;;;;;;;22.92;33.90;99704.22;4346989;33;32117;-59
2023/05/02 03:48:48;;;;;;;6.05;2.47;;;;;;;22.94;33.88;99709.44;4346771;33;33760;-60
2023/05/02 03:51:16;;;;;;;3.08;1.70;;;;;;;22.92;33.87;99703.37;4347039;33;34276;-59
2023/05/02 03:53:45;;;;;;;4.90;2.45;;;;;;;22.92;33.88;99703.37;4346901;33;33784;-57
2023/05/02 03:56:17;;;;;;;4.15;1.80;;;;;;;22.91;33.88;99707.19;4346960;33;34695;-62
2023/05/02 03:58:46;;;;;;;5.30;2.22;;;;;;;22.90;33.87;99703.63;4346743;33;34147;-60
2023/05/02 04:01:16;;;;;;;5.03;2.20;;;;;;;22.91;33.92;99712.63;4346924;33;34354;-62
2023/05/02 04:03:45;;;;;;;5.45;2.10;;;;;;;22.91;33.91;99707.19;4346825;33;33894;-60
2023/05/02 04:06:14;;;;;;;;;;;;;;;22.91;33.89;99709.91;4354280;32;34806;-61
2023/05/02 04:08:42;;;;;;;4.15;2.20;;;;;;;23.00;33.77;99710.44;4361688;32;34446;-62
2023/05/02 04:11:10;;;;;;;3.40;1.92;;;;;;;22.92;33.81;99715.09;4361716;32;34543;-59
2023/05/02 04:13:37;;;;;;;7.53;3.08;;;;;;;22.91;33.79;99723.50;4361677;32;33331;-60
2023/05/02 04:16:06;;;;;;;4.70;2.20;;;;;;;22.90;33.80;99721.84;4361629;32;33831;-56
2023/05/02 04:18:34;;;;;;;3.90;2.15;;;;;;;22.89;33.81;99720.97;4361684;32;33781;-61
2023/05/02 04:21:02;;;;;;;5.60;2.37;;;;;;;22.89;33.83;99714.72;4361725;32;34573;-60
2023/05/02 04:23:30;;;;;;;4.47;2.25;;;;;;;22.88;33.82;99719.28;4361462;32;34414;-58
2023/05/02 04:25:58;;;;;;;4.93;2.22;;;;;;;22.89;33.98;99726.44;4361465;32;34961;-59
2023/05/02 04:28:26;;;;;;;4.80;2.10;;;;;;;22.87;33.99;99724.97;4361329;32;32715;-61
2023/05/02 04:30:55;;;;;;;5.95;2.30;;;;;;;22.87;33.94;99725.78;4361351;32;35072;-61
2023/05/02 04:33:24;;;;;;;5.53;2.58;;;;;;;22.88;33.95;99735.63;4335734;32;32293;-58
2023/05/02 04:35:52;;;;;;;5.50;2.25;;;;;;;22.89;33.93;99728.31;4361215;32;33998;-62
2023/05/02 04:38:20;;;;;;;5.10;2.10;;;;;;;22.89;33.92;99726.44;4361457;32;33803;-60
2023/05/02 04:40:50;;;;;;;4.65;2.22;;;;;;;22.89;34.09;99731.03;4363293;32;33991;-60
2023/05/02 04:43:19;;;;;;;5.32;1.98;;;;;;;22.88;34.05;99727.44;4363163;32;34161;-62
2023/05/02 04:45:49;;;;;;;4.62;1.83;;;;;;;22.89;34.00;99731.03;4361638;32;33954;-62
2023/05/02 04:48:20;;;;;;;4.00;2.20;;;;;;;22.90;33.97;99732.72;4360333;32;34006;-59
2023/05/02 04:50:48;;;;;;;7.65;2.60;;;;;;;22.89;33.99;99734.59;4357506;32;34315;-61
2023/05/02 04:53:16;;;;;;;7.15;2.72;;;;;;;22.89;34.08;99741.91;4362920;32;33908;-61
2023/05/02 04:55:43;;;;;;;4.97;2.15;;;;;;;22.89;34.09;99741.91;4363161;32;34544;-62
2023/05/02 04:58:11;;;;;;;4.40;2.47;;;;;;;22.88;34.08;99751.94;4362794;32;35030;-61
2023/05/02 05:00:40;;;;;;;5.28;2.40;;;;;;;22.88;34.13;99745.66;4363009;32;34928;-62
2023/05/02 05:03:08;;;;;;;5.55;2.40;;;;;;;22.88;34.12;99742.94;4363141;32;34483;-61
2023/05/02 05:05:35;;;;;;;6.55;2.10;;;;;;;22.88;34.18;99751.94;4359521;32;34776;-59
2023/05/02 05:08:03;;;;;;;7.50;2.72;;;;;;;22.88;34.28;99751.94;4351725;32;34016;-61
2023/05/02 05:10:31;;;;;;;4.05;2.03;;;;;;;22.89;34.44;99741.91;4362782;32;34291;-59
2023/05/02 05:13:00;;;;;;;8.15;2.40;;;;;;;22.88;34.52;99749.22;4349453;32;34372;-64
2023/05/02 05:15:27;;;;;;;8.48;2.50;;;;;;;22.89;34.50;99745.47;4362993;32;34868;-61
2023/05/02 05:17:56;;;;;;;5.05;2.45;;;;;;;22.89;34.64;99748.19;4362843;32;34588;-65
2023/05/02 05:20:24;;;;;;;3.50;2.10;;;;;;;22.91;34.71;99748.00;4362884;32;34007;-63
2023/05/02 05:22:52;;;;;;;5.20;2.50;;;;;;;22.91;34.87;99750.72;4362960;32;33745;-65
2023/05/02 05:25:19;;;;;;;3.85;2.28;;;;;;;22.92;34.87;99749.66;4362856;32;33990;-62
2023/05/02 05:27:48;;;;;;;3.15;1.90;;;;;;;22.94;34.92;99757.56;4362735;32;33759;-61
2023/05/02 05:30:15;;;;;;;3.85;1.95;;;;;;;22.93;34.99;99754.03;4362442;32;34262;-64
2023/05/02 05:32:43;;;;;;;5.07;2.17;;;;;;;22.95;35.01;99759.25;4359944;32;87134;-64
2023/05/02 05:35:10;;;;;;;3.55;1.70;;;;;;;22.95;35.02;99761.97;4362804;32;33614;-61
2023/05/02 05:37:39;;;;;;;4.45;1.80;;;;;;;22.96;34.96;99753.59;4362872;32;34723;-64
2023/05/02 05:40:07;;;;;;;4.07;2.00;;;;;;;22.95;35.02;99765.53;4362650;32;34104;-63
2023/05/02 05:42:35;;;;;;;3.70;1.90;;;;;;;22.97;35.09;99777.00;4362823;32;34217;-64
2023/05/02 05:45:04;;;;;;;3.22;1.70;;;;;;;22.97;35.33;99781.63;4362532;32;33943;-60
2023/05/02 05:47:32;;;;;;;2.97;1.62;;;;;;;22.97;35.55;99777.00;4362689;32;34588;-63
2023/05/02 05:50:00;;;;;;;5.37;2.22;;;;;;;22.99;36.05;99783.06;4361672;32;33739;-64
2023/05/02 05:52:30;;;;;;;;;;;;;;;23.01;36.58;99791.00;4362783;32;34618;-64
2023/05/02 05:54:58;;;;;;;6.82;2.42;;;;;;;23.09;36.26;99775.22;4362554;32;35068;-64
2023/05/02 05:57:26;;;;;;;6.07;2.28;;;;;;;23.05;36.54;99786.78;4362470;32;34060;-64
2023/05/02 05:59:54;;;;;;;5.03;2.10;;;;;;;23.03;36.67;99784.25;4362743;32;34918;-64
2023/05/02 06:02:22;;;;;;;7.78;2.40;;;;;;;23.03;36.86;99784.25;4362652;32;34529;-64
2023/05/02 06:04:50;;;;;;;6.82;1.92;;;;;;;23.04;37.05;99776.97;4362395;32;34885;-64
2023/05/02 06:07:18;;;;;;;4.57;2.08;;;;;;;23.05;37.20;99781.34;4361969;32;34610;-64
2023/05/02 06:10:05;;;;;;;4.80;2.08;;;;;;;23.05;37.26;99774.00;4361377;32;35747;-63
2023/05/02 06:12:33;;;;;;;4.87;2.07;;;;;;;23.06;37.46;99792.00;4362586;32;33584;-63
2023/05/02 06:15:01;;;;;;;4.57;2.00;;;;;;;23.07;37.63;99781.94;4362381;32;33058;-63
2023/05/02 06:17:30;;;;;;;6.70;2.20;;;;;;;23.07;37.79;99780.03;4362607;32;33805;-63
2023/05/02 06:19:57;;;;;;;9.73;2.12;;;;;;;23.08;37.90;99784.47;4361283;32;34885;-63
2023/05/02 06:22:26;;;;;;;7.57;2.03;;;;;;;23.08;37.89;99781.72;4362109;32;34763;-64
2023/05/02 06:24:54;;;;;;;3.78;1.70;;;;;;;23.10;38.07;99795.09;4362299;32;33457;-64
2023/05/02 06:27:22;;;;;;;9.80;2.33;;;;;;;23.09;38.19;99783.38;4362234;32;34032;-64
2023/05/02 06:29:51;;;;;;;6.35;2.10;;;;;;;23.11;38.24;99780.44;4362009;32;34205;-63
2023/05/02 06:32:18;;;;;;;5.18;2.33;;;;;;;23.10;38.31;99781.50;4362182;32;33047;-64
2023/05/02 06:34:46;;;;;;;3.70;1.90;;;;;;;23.12;38.40;99790.25;4361604;32;33757;-64
2023/05/02 06:37:13;;;;;;;5.10;2.17;;;;;;;23.12;38.45;99791.09;4362025;32;33478;-64
2023/05/02 06:39:41;;;;;;;6.87;2.30;;;;;;;23.12;38.54;99788.37;4336448;32;35484;-64
2023/05/02 06:42:09;;;;;;;5.00;2.10;;;;;;;23.13;38.62;99792.78;4362171;32;33812;-64
2023/05/02 06:44:36;;;;;;;10.38;2.55;;;;;;;23.14;38.67;99788.16;4362351;32;33848;-64
2023/05/02 06:47:05;;;;;;;6.07;1.95;;;;;;;23.15;38.69;99795.25;4362221;32;33244;-62
2023/05/02 06:49:33;;;;;;;9.07;2.97;;;;;;;23.15;38.68;99795.25;4361944;32;33792;-64
2023/05/02 06:52:00;;;;;;;6.68;2.25;;;;;;;23.15;38.69;99803.44;4362168;32;33434;-63
2023/05/02 06:54:28;;;;;;;11.52;2.60;;;;;;;23.15;38.72;99795.25;4362253;32;33916;-63
2023/05/02 06:56:56;;;;;;;7.47;2.22;;;;;;;23.15;38.74;99795.25;4361689;32;34042;-63
2023/05/02 06:59:25;;;;;;;7.57;2.05;;;;;;;23.14;38.69;99794.44;4361929;32;35400;-64
2023/05/02 07:01:52;;;;;;;6.40;2.37;;;;;;;23.16;38.68;99796.91;4361866;32;33295;-63
2023/05/02 07:04:20;;;;;;;5.65;2.05;;;;;;;23.16;38.65;99786.88;4361763;32;34656;-64
2023/05/02 07:06:48;;;;;;;5.55;2.53;;;;;;;23.16;38.62;99791.47;4361844;32;34109;-63
2023/05/02 07:09:16;;;;;;;5.62;2.30;;;;;;;23.16;38.57;99800.47;4361699;32;34992;-64
2023/05/02 07:11:44;;;;;;;7.10;2.47;;;;;;;23.16;38.54;99797.75;4362111;32;33564;-64
2023/05/02 07:14:11;;;;;;;4.57;2.05;;;;;;;23.17;38.49;99798.56;4361803;32;34046;-64
2023/05/02 07:16:38;;;;;;;4.65;2.05;;;;;;;23.17;38.42;99791.28;4361940;32;34725;-64
2023/05/02 07:35:14;;;;;;;5.30;2.23;;;;;;;23.17;38.10;99802.16;5166073;27;20146;31
2023/05/02 07:40:45;;;;;;;5.15;2.28;;;;;;;23.16;37.88;99807.81;4918430;27;20089;-65
2023/05/02 07:46:17;;;;;;;6.65;3.20;;;;;;;23.17;37.88;99807.59;4343937;31;20139;-66
2023/05/02 07:54:58;;;;;;;7.53;2.83;;;;;;;23.19;37.34;99798.38;5121114;27;20047;-65
2023/05/02 07:57:26;;;;;;;6.70;2.92;;;;;;;23.20;37.44;99800.03;4354645;32;31734;-63
2023/05/02 07:59:56;;;;;;;6.07;2.58;;;;;;;23.19;37.42;99801.09;4346790;33;33871;-63
2023/05/02 08:02:24;;;;;;;7.97;2.70;;;;;;;23.21;37.46;99798.97;4345328;33;34026;-61
2023/05/02 08:04:52;;;;;;;5.20;2.30;;;;;;;23.21;37.45;99798.97;4351471;32;33986;-65
2023/05/02 08:07:20;;;;;;;3.83;2.35;;;;;;;23.21;37.48;99805.25;4355498;32;33849;-62
2023/05/02 08:09:47;;;;;;;3.95;2.53;;;;;;;23.21;37.50;99802.53;4346421;33;33712;-65
2023/05/02 08:12:15;;;;;;;6.37;2.50;;;;;;;23.22;37.54;99796.00;4346675;33;34814;-64
2023/05/02 08:14:43;;;;;;;6.28;2.70;;;;;;;23.23;37.61;99800.44;4345870;33;33999;-65
2023/05/02 08:17:11;;;;;;;5.18;2.30;;;;;;;23.23;37.71;99811.31;4346386;33;33682;-64
2023/05/02 08:19:38;;;;;;;6.87;2.67;;;;;;;23.26;37.77;99820.91;4346246;32;33583;-64
2023/05/02 08:22:06;;;;;;;8.98;2.60;;;;;;;23.26;37.84;99812.72;4356942;32;33722;-64
2023/05/02 08:24:33;;;;;;;5.45;2.53;;;;;;;23.26;37.89;99813.56;4354132;32;33854;-65
2023/05/02 08:27:05;;;;;;;4.37;2.67;;;;;;;23.26;37.92;99808.13;4345688;33;33467;-65
2023/05/02 08:29:32;;;;;;;5.90;2.65;;;;;;;23.27;37.91;99804.38;4345219;33;34032;-64
2023/05/02 08:32:00;;;;;;;4.78;2.58;;;;;;;23.27;37.90;99806.22;4345858;33;33859;-64
2023/05/02 08:34:28;;;;;;;6.85;2.20;;;;;;;23.28;37.89;99797.03;4345871;33;34340;-64
2023/05/02 08:36:55;;;;;;;5.90;2.58;;;;;;;23.28;37.86;99799.75;4344711;33;33714;-63
2023/05/02 08:39:24;;;;;;;4.55;2.50;;;;;;;23.28;37.83;99797.84;4332718;33;33779;-65
2023/05/02 08:41:52;;;;;;;6.97;2.53;;;;;;;23.29;37.80;99793.25;4320261;33;32213;-65
2023/05/02 08:44:19;;;;;;;6.45;3.10;;;;;;;23.30;37.78;99787.56;4329014;33;34179;-65
2023/05/02 08:46:47;;;;;;;6.37;2.83;;;;;;;23.30;37.75;99800.34;4331823;33;33465;-63
2023/05/02 08:49:15;;;;;;;4.95;2.90;;;;;;;23.30;37.72;99794.91;4320412;33;33426;-64
2023/05/02 08:51:43;;;;;;;5.00;2.78;;;;;;;23.30;37.70;99786.72;4318455;33;33803;-64
2023/05/02 08:54:11;;;;;;;5.90;2.72;;;;;;;23.31;37.68;99791.94;4321116;33;34271;-66
2023/05/02 08:56:38;;;;;;;5.40;2.70;;;;;;;23.31;37.65;99783.78;4331477;33;33757;-65
2023/05/02 08:59:07;;;;;;;6.47;2.70;;;;;;;23.31;37.63;99788.37;4332057;33;33760;-65
2023/05/02 09:01:34;;;;;;;5.47;2.80;;;;;;;23.33;37.59;99780.84;4346057;33;34111;-64
2023/05/02 09:04:03;;;;;;;4.68;2.20;;;;;;;23.33;37.58;99786.28;4330879;33;34594;-65
2023/05/02 09:06:31;;;;;;;5.82;2.90;;;;;;;23.33;37.56;99783.56;4329290;33;34385;-64
2023/05/02 09:09:00;;;;;;;6.05;2.62;;;;;;;23.33;37.53;99775.41;4331144;33;34776;-64
2023/05/02 09:11:28;;;;;;;6.00;2.53;;;;;;;23.34;37.54;99785.22;4337911;33;33325;-64
2023/05/02 09:13:57;;;;;;;6.35;2.83;;;;;;;23.34;37.52;99782.50;4340367;33;35072;-65
2023/05/02 09:16:25;;;;;;;6.25;2.95;;;;;;;23.35;37.52;99786.88;4344974;33;33622;-63
2023/05/02 09:18:54;;;;;;;6.75;2.78;;;;;;;23.35;37.50;99774.09;4345808;33;34710;-62
2023/05/02 09:21:33;;;;;;;7.57;2.55;;;;;;;23.35;37.51;99774.09;4330721;33;33901;-64
2023/05/02 09:24:02;;;;;;;4.57;2.60;;;;;;;23.35;37.50;99778.72;4344403;33;34340;-64
2023/05/02 09:26:32;;;;;;;6.00;2.70;;;;;;;23.36;37.46;99777.66;4322256;33;34620;-64
2023/05/02 09:29:00;;;;;;;5.10;2.67;;;;;;;23.36;37.46;99777.66;4347349;33;33550;-62
2023/05/02 09:31:35;;;;;;;6.15;3.00;;;;;;;23.37;37.44;99773.88;4334133;33;34105;-65
2023/05/02 09:34:22;;;;;;;4.47;2.42;;;;;;;23.37;37.41;99779.34;4336898;33;33703;-63
2023/05/02 09:36:52;;;;;;;7.78;2.70;;;;;;;23.38;37.32;99781.81;4347056;33;33217;-65
2023/05/02 09:39:21;;;;;;;4.45;2.40;;;;;;;23.39;37.31;99779.94;4334644;33;33881;-64
2023/05/02 09:41:51;;;;;;;4.97;2.70;;;;;;;23.38;37.30;99775.53;4332888;33;33777;-66
2023/05/02 09:44:21;;;;;;;4.45;2.60;;;;;;;23.38;37.27;99781.00;4333259;33;34174;-66
2023/05/02 09:46:53;;;;;;;;;;;;;;;23.39;37.24;99779.94;4333915;33;34537;-66
2023/05/02 09:49:41;;;;;;;6.93;2.33;;;;;;;23.48;37.04;99778.56;4347842;33;33813;-65
2023/05/02 09:52:10;;;;;;;6.62;2.53;;;;;;;23.43;37.08;99779.25;4334439;33;33717;-67
2023/05/02 09:54:38;;;;;;;4.50;2.33;;;;;;;23.38;37.11;99767.38;4347209;33;34988;-65
2023/05/02 09:57:06;;;;;;;5.35;2.62;;;;;;;23.40;37.08;99773.41;4330625;33;34500;-65
2023/05/02 09:59:33;;;;;;;3.67;2.50;;;;;;;23.39;37.03;99779.94;4332075;33;34420;-66
2023/05/02 10:02:02;;;;;;;7.90;3.03;;;;;;;23.40;36.97;99785.13;4333000;33;34152;-64
2023/05/02 10:04:31;;;;;;;6.85;2.67;;;;;;;23.39;36.92;99780.75;4331420;33;34186;-64
2023/05/02 10:06:59;;;;;;;4.22;2.30;;;;;;;23.40;36.87;99776.97;4331444;33;33806;-65
2023/05/02 10:09:27;;;;;;;4.68;2.78;;;;;;;23.43;36.81;99779.25;4330520;33;33751;-64
2023/05/02 10:11:55;;;;;;;6.03;2.47;;;;;;;23.42;36.78;99777.59;4332535;33;34181;-65
2023/05/02 10:14:24;;;;;;;6.53;2.67;;;;;;;23.41;36.71;99773.22;4318698;33;34993;-65
2023/05/02 10:17:00;;;;;;;5.32;2.92;;;;;;;23.42;36.67;99768.59;4332227;33;33718;-64
2023/05/02 10:20:00;;;;;;;5.40;2.62;;;;;;;23.42;36.64;99772.16;4330019;33;33978;-65
2023/05/02 10:22:27;;;;;;;6.47;2.87;;;;;;;23.48;36.55;99766.84;4328580;33;34781;-65
2023/05/02 10:24:55;;;;;;;3.60;2.00;;;;;;;23.46;36.52;99777.97;4330907;33;34197;-66
2023/05/02 10:27:22;;;;;;;4.50;2.50;;;;;;;23.43;36.52;99771.06;4316404;33;33853;-65
2023/05/02 10:29:50;;;;;;;5.25;2.33;;;;;;;23.43;36.49;99767.53;4309364;33;35119;-65
2023/05/02 10:32:18;;;;;;;6.03;2.75;;;;;;;23.44;36.43;99777.34;4330918;33;33710;-65
2023/05/02 10:34:46;;;;;;;4.20;2.30;;;;;;;23.44;36.40;99771.91;4330735;33;33882;-65
2023/05/02 10:37:13;;;;;;;4.40;2.55;;;;;;;23.43;36.33;99768.34;4330156;33;33745;-65
2023/05/02 10:39:41;;;;;;;3.12;2.15;;;;;;;23.45;36.31;99770.00;4330872;33;34837;-64
2023/05/02 10:42:09;;;;;;;4.37;2.65;;;;;;;23.45;36.25;99768.12;4332678;33;34120;-64
2023/05/02 10:44:39;;;;;;;4.60;2.47;;;;;;;23.47;36.21;99762.47;4329492;33;33369;-66
2023/05/02 10:47:25;;;;;;;4.30;2.47;;;;;;;23.45;36.18;99759.94;4332109;33;34968;-67
2023/05/02 10:49:57;;;;;;;3.53;1.95;;;;;;;23.48;36.10;99764.94;4331435;33;33811;-66
2023/05/02 10:52:35;;;;;;;4.50;2.58;;;;;;;23.47;36.10;99778.81;4330760;33;33718;-64
2023/05/02 10:55:22;;;;;;;6.07;2.42;;;;;;;23.47;36.10;99765.19;4316422;33;34837;-64
2023/05/02 10:57:59;;;;;;;3.65;2.35;;;;;;;23.48;36.04;99761.41;4331239;33;34465;-65
2023/05/02 11:00:34;;;;;;;5.87;2.60;;;;;;;23.46;36.00;99756.19;4331860;33;33361;-65
2023/05/02 11:03:01;;;;;;;5.10;2.90;;;;;;;23.45;36.01;99765.41;4331212;33;33841;-64
2023/05/02 11:05:29;;;;;;;5.80;3.00;;;;;;;23.46;35.98;99761.62;4331077;33;35297;-64
2023/05/02 11:08:18;;;;;;;4.82;2.80;;;;;;;23.47;35.98;99759.75;4331284;33;33288;-65
2023/05/02 11:10:49;;;;;;;4.97;2.65;;;;;;;23.49;35.94;99754.88;4332248;33;34763;-66
2023/05/02 11:13:17;;;;;;;5.05;2.70;;;;;;;23.47;35.95;99744.22;4331606;33;34074;-66
2023/05/02 11:15:44;;;;;;;5.07;2.75;;;;;;;23.48;35.97;99745.06;4330814;33;32344;-65
2023/05/02 11:18:12;;;;;;;5.37;2.30;;;;;;;23.48;35.97;99745.06;4331570;33;34354;-64
2023/05/02 11:20:43;;;;;;;3.90;2.30;;;;;;;23.48;35.96;99737.72;4331183;33;34948;-63
2023/05/02 11:23:14;;;;;;;4.50;2.50;;;;;;;23.47;36.01;99735.22;4330157;33;33993;-66
2023/05/02 11:26:05;;;;;;;4.75;2.83;;;;;;;23.48;36.04;99739.63;4326905;33;35011;-65
2023/05/02 11:28:35;;;;;;;3.97;2.53;;;;;;;23.50;36.04;99741.06;4316179;33;34500;-65
2023/05/02 11:31:07;;;;;;;6.05;2.95;;;;;;;23.50;36.08;99729.31;4328060;33;33602;-65
2023/05/02 11:33:35;;;;;;;5.05;2.65;;;;;;;23.50;36.16;99732.03;4319064;33;34123;-64
2023/05/02 11:36:03;;;;;;;6.15;2.60;;;;;;;23.50;36.23;99729.31;4330795;33;34338;-64
2023/05/02 11:38:35;;;;;;;6.85;2.78;;;;;;;23.50;36.30;99724.72;4332324;33;34517;-64
2023/05/02 11:41:04;;;;;;;3.92;2.58;;;;;;;23.51;36.45;99729.09;4330496;33;34882;-65
2023/05/02 11:43:31;;;;;;;5.18;2.67;;;;;;;23.51;36.52;99734.56;4331062;33;33633;-63
2023/05/02 11:46:00;;;;;;;5.32;2.70;;;;;;;23.52;36.63;99724.47;4330833;33;34939;-65
2023/05/02 11:48:29;;;;;;;6.25;2.80;;;;;;;23.52;36.78;99719.87;4328272;33;34284;-65
2023/05/02 11:50:57;;;;;;;6.57;3.00;;;;;;;23.54;36.87;99720.47;4330955;33;34450;-65
2023/05/02 11:53:27;;;;;;;9.73;3.15;;;;;;;23.54;36.97;99730.53;4331644;33;33676;-65
2023/05/02 11:55:56;;;;;;;4.87;2.67;;;;;;;23.53;37.08;99718.78;4330245;33;34596;-64
2023/05/02 11:58:28;;;;;;;5.40;2.45;;;;;;;23.54;37.10;99717.72;4321565;33;33707;-65
2023/05/02 12:00:56;;;;;;;5.10;2.25;;;;;;;23.54;37.14;99725.91;4329425;33;34943;-66
2023/05/02 12:03:27;;;;;;;5.03;2.55;;;;;;;23.55;37.16;99726.72;4331794;33;34863;-65
2023/05/02 12:05:56;;;;;;;4.97;2.55;;;;;;;23.55;37.17;99724.88;4330990;33;34934;-64
2023/05/02 12:08:26;;;;;;;9.75;2.97;;;;;;;23.54;37.19;99725.91;4330867;33;34582;-65
2023/05/02 12:10:54;;;;;;;6.55;3.00;;;;;;;23.54;37.18;99717.72;4331060;33;33782;-64
2023/05/02 12:13:23;;;;;;;8.48;2.67;;;;;;;23.55;37.17;99718.56;4316527;33;34344;-63
2023/05/02 12:15:52;;;;;;;5.57;2.50;;;;;;;23.56;37.16;99720.25;4328712;33;35073;-64